LTAI Airport Information

Runway Information
Runway 18C Length 11155 ft width 148 ft
Elevation 176 ft Threshold 0 ft Heading 186
Runway 36C Length 11155 ft Width 148 ft
Elevation 176 ft Threshold 0 ft Heading 6
Runway 18L Length 11155 ft width 148 ft
Elevation 176 ft Threshold 0 ft Heading 186
Runway 36R Length 11155 ft Width 148 ft
Elevation 158 ft Threshold 0 ft Heading 6
Runway 18R Length 9811 ft width 148 ft
Elevation 172 ft Threshold 0 ft Heading 186
Runway 36L Length 9811 ft Width 148 ft
Elevation 176 ft Threshold 0 ft Heading 6
Airport Frequencies
Type APP Name upper Frequency 122.05 MHZ
Type Approach Name arrival Frequency 119.65 MHZ
Type ATIS Name ATIS Frequency 118.275 MHZ
Type CLD Name CLNC DEL Frequency 123.175 MHZ
Type GND Name GND Frequency 121.9 MHZ
Type TWR Name TWR east Frequency 125 MHZ
Type TWR Name TWR west Frequency 126.1 MHZ
Airport Navaids
Type DME Name Antalya Frequency 109100 KHZ
Type TACAN Name Antalya Frequency 115500 KHZ
Type VOR-DME Name Antalya Frequency 114000 KHZ
Type NDB Name Antalya Frequency 413 KHZ
Type VOR-DME Name Lara Frequency 113600 KHZ
Type NDB Name Antalya Frequency 302 KHZ
Airport Weather Information & NOTAM
ADDS - METARS form results

(1940 UTC 18 January 2020)
Data provider http://aviationweather.gov/metar/data/
 
METAR text: LTAI 181920Z 35011KT CAVOK 09/M04 Q1016 NOSIG RMK RWY18C 35013KT RWY36R 35011KT RWY18L 35012KT
Conditions at: LTAI (ANTALYA (CIV/MIL, TR) observed 1920 UTC 18 January 2020
Temperature: 9.0°C (48°F)
Dewpoint: -4.0°C (25°F) [RH = 40%]
Pressure (altimeter): 30.00 inches Hg (1016.0 mb)
Winds: from the N (350 degrees) at 13 MPH (11 knots; 5.7 m/s)
Visibility: 6 or more miles (10+ km)
Ceiling: ceiling and visibility are OK
Clouds: unknown
Weather: no significant weather observed at this time

METAR text: LTAI 181850Z 36011KT CAVOK 09/M04 Q1015 NOSIG RMK RWY18C 35015KT RWY36R 36010KT RWY18L 35012KT
Conditions at: LTAI (ANTALYA (CIV/MIL, TR) observed 1850 UTC 18 January 2020
Temperature: 9.0°C (48°F)
Dewpoint: -4.0°C (25°F) [RH = 40%]
Pressure (altimeter): 29.97 inches Hg (1015.0 mb)
Winds: from the N (360 degrees) at 13 MPH (11 knots; 5.7 m/s)
Visibility: 6 or more miles (10+ km)
Ceiling: ceiling and visibility are OK
Clouds: unknown
Weather: no significant weather observed at this time

Forecast for: LTAI (ANTALYA (CIV/MIL, TR)
Text: TAF LTAI 181640Z 1818/1918 34009KT CAVOK
Forecast period: 1800 UTC 18 January 2020 to 1800 UTC 19 January 2020
Forecast type: FROM: standard forecast or significant change
Winds: from the NNW (340 degrees) at 10 MPH (9 knots; 4.6 m/s)
Visibility: 6 or more miles 10+ km)
Ceiling: unknown
Clouds: missing
Weather: NSW  (no significant weather)